^^
Station Historical Data
Daily Summary for January 20, 2018 Units:  Metric    English   Both
« Previous Day
Next Day »
Daily Weekly Monthly Yearly Custom
  High: Low: Average:
Temperature: -17.8 °C 16.8 °C 24.9 °C
Dew Point: -17.8 °C -5.9 °C 7.2 °C
Humidity: Humidity% 6% 39%
Wind Speed: 0km/h 0km/h 10.1km/h
Wind Gust: 0km/h - -
Wind- - SW
Pressure: 0 hPa 1000.2 hPa -
Precipitation: 0 mm    
Historical Graphs
 
 
Tabular Data for January 20, 2018
Time Temperature Dew Point Pressure Wind Wind Speed Wind Gust Humidity Rainfall Rate (Hourly) solar Conditions
-17.8 °C -17.8 °C 0 hPa Calm     Humidity% 0 mm SolarRadiationWatts/m^2 W/m2 Conditions
00:08 22.7 °C 9.1 °C 1005.6 hPa SSW 19.5 km/h 19.5 km/h 42% 0 mm 0.0 W/m2
00:13 22.6 °C 9 °C 1005.6 hPa SSW 14.3 km/h 19.3 km/h 42% 0 mm 0.0 W/m2
00:23 22.4 °C 8.9 °C 1005.6 hPa SSW 7.9 km/h 14.5 km/h 42% 0 mm 0.0 W/m2
00:28 22.3 °C 8.8 °C 1005.6 hPa SSW 7.9 km/h 12.9 km/h 42% 0 mm 0.0 W/m2
00:33 22.2 °C 8.7 °C 1005.6 hPa SSW 9.7 km/h 11.3 km/h 42% 0 mm 0.0 W/m2
00:38 22.2 °C 8.7 °C 1005.6 hPa SSW 13 km/h 16.1 km/h 42% 0 mm 0.0 W/m2
00:43 22.1 °C 8.6 °C 1005.6 hPa SSW 13 km/h 14.5 km/h 42% 0 mm 0.0 W/m2
00:48 21.9 °C 8.4 °C 1005.6 hPa SSW 16.3 km/h 17.7 km/h 42% 0 mm 0.0 W/m2
00:58 21.8 °C 8.3 °C 1005.6 hPa SW 13 km/h 17.7 km/h 42% 0 mm 0.0 W/m2
01:03 21.8 °C 8.7 °C 1005.6 hPa SSW 13 km/h 14.5 km/h 43% 0 mm 0.0 W/m2
01:08 21.7 °C 8.6 °C 1005.6 hPa SSW 16.3 km/h 19.3 km/h 43% 0 mm 0.0 W/m2
01:18 21.5 °C 8.7 °C 1005.6 hPa SSW 13 km/h 17.7 km/h 44% 0 mm 0.0 W/m2
01:28 21.3 °C 8.9 °C 1005.6 hPa SSW 13 km/h 17.7 km/h 45% 0 mm 0.0 W/m2
01:33 21.2 °C 8.8 °C 1005.6 hPa SSW 13 km/h 17.7 km/h 45% 0 mm 0.0 W/m2
01:38 21.2 °C 8.8 °C 1005.6 hPa SW 13 km/h 17.7 km/h 45% 0 mm 0.0 W/m2
01:43 21.1 °C 9 °C 1005.6 hPa SSW 14.3 km/h 17.7 km/h 46% 0 mm 0.0 W/m2
01:48 20.9 °C 9.2 °C 1005.6 hPa SW 16.3 km/h 17.7 km/h 47% 0 mm 0.0 W/m2
01:58 20.8 °C 9.1 °C 1005.6 hPa SSW 13 km/h 16.1 km/h 47% 0 mm 0.0 W/m2
02:03 20.7 °C 9.3 °C 1005.6 hPa SSW 11.1 km/h 16.1 km/h 48% 0 mm 0.0 W/m2
02:08 20.7 °C 9.3 °C 1005.3 hPa SSW 13 km/h 16.1 km/h 48% 0 mm 0.0 W/m2
02:14 20.6 °C 9.5 °C 1005.6 hPa SSW 9.7 km/h 17.7 km/h 49% 0 mm 0.0 W/m2
02:19 20.6 °C 9.8 °C 1005.3 hPa SSW 17.7 km/h 19.3 km/h 50% 0 mm 0.0 W/m2
02:24 20.5 °C 10 °C 1005 hPa SSW 13 km/h 19.3 km/h 51% 0 mm 0.0 W/m2
02:29 20.4 °C 9.9 °C 1005 hPa SSW 16.3 km/h 20.9 km/h 51% 0 mm 0.0 W/m2
02:34 20.4 °C 10.2 °C 1005 hPa SSW 17.7 km/h 17.7 km/h 52% 0 mm 0.0 W/m2
02:39 20.3 °C 10.1 °C 1005 hPa SSW 9.7 km/h 16.1 km/h 52% 0 mm 0.0 W/m2
02:44 20.2 °C 10 °C 1005 hPa SSW 9.7 km/h 16.1 km/h 52% 0 mm 0.0 W/m2
02:49 20.1 °C 9.6 °C 1005 hPa SSW 9.7 km/h 12.9 km/h 51% 0 mm 0.0 W/m2
02:54 19.9 °C 9.5 °C 1005 hPa SSW 7.9 km/h 12.9 km/h 51% 0 mm 0.0 W/m2
02:59 19.8 °C 9.7 °C 1005 hPa SSW 11.1 km/h 12.9 km/h 52% 0 mm 0.0 W/m2
03:04 19.7 °C 9.6 °C 1004.6 hPa SSW 6.4 km/h 12.9 km/h 52% 0 mm 0.0 W/m2
03:09 19.6 °C 9.8 °C 1004.6 hPa SSW 13 km/h 13 km/h 53% 0 mm 0.0 W/m2
03:19 19.4 °C 9.9 °C 1004.6 hPa SW 13 km/h 14.5 km/h 54% 0 mm 0.0 W/m2
03:24 19.3 °C 9.8 °C 1004.6 hPa SW 17.7 km/h 19.3 km/h 54% 0 mm 0.0 W/m2
03:29 19.3 °C 9.8 °C 1004.6 hPa SW 16.3 km/h 16.3 km/h 54% 0 mm 0.0 W/m2
03:34 19.2 °C 9.9 °C 1004.6 hPa SW 11.1 km/h 17.7 km/h 55% 0 mm 0.0 W/m2
03:39 19.2 °C 9.9 °C 1004.6 hPa SW 13 km/h 16.1 km/h 55% 0 mm 0.0 W/m2
03:49 19 °C 9.8 °C 1004.6 hPa SW 14.3 km/h 14.5 km/h 55% 0 mm 0.0 W/m2
03:59 18.8 °C 9.8 °C 1004.6 hPa SW 11.1 km/h 14.5 km/h 56% 0 mm 0.0 W/m2
04:04 18.8 °C 10.1 °C 1004.3 hPa SW 11.1 km/h 16.1 km/h 57% 0 mm 0.0 W/m2
04:09 18.7 °C 10.3 °C 1004.3 hPa SW 11.1 km/h 17.7 km/h 58% 0 mm 0.0 W/m2
04:14 18.7 °C 10.3 °C 1004.3 hPa SW 13 km/h 16.1 km/h 58% 0 mm 0.0 W/m2
04:19 18.6 °C 10.4 °C 1004.3 hPa SW 14.3 km/h 16.1 km/h 59% 0 mm 0.0 W/m2
04:24 18.6 °C 10.7 °C 1004.6 hPa SW 14.3 km/h 17.7 km/h 60% 0 mm 0.0 W/m2
04:29 18.5 °C 10.6 °C 1004.6 hPa SW 9.7 km/h 17.7 km/h 60% 0 mm 0.0 W/m2
04:34 18.4 °C 10.5 °C 1004.6 hPa SW 9.7 km/h 11.3 km/h 60% 0 mm 0.0 W/m2
04:39 18.4 °C 10.7 °C 1004.6 hPa SW 7.9 km/h 8 km/h 61% 0 mm 0.0 W/m2
04:49 18.3 °C 10.9 °C 1004.6 hPa SW 7.9 km/h 8 km/h 62% 0 mm 0.0 W/m2
05:00 18.1 °C 10.7 °C 1005 hPa Calm     62% 0 mm 0.0 W/m2
05:05 18 °C 10.6 °C 1005 hPa Calm     62% 0 mm 0.0 W/m2
05:10 17.8 °C 10.7 °C 1005 hPa Calm     63% 0 mm 0.0 W/m2
05:15 17.7 °C 10.6 °C 1005 hPa Calm     63% 0 mm 0.0 W/m2
05:20 17.6 °C 10.7 °C 1005 hPa Calm     64% 0 mm 0.0 W/m2
05:26 17.6 °C 10.7 °C 1005.3 hPa Calm     64% 0 mm 0.0 W/m2
05:31 17.5 °C 10.8 °C 1005.3 hPa Calm     65% 0 mm 0.0 W/m2
05:36 17.4 °C 10.8 °C 1005.3 hPa Calm     65% 0 mm 0.0 W/m2
05:41 17.4 °C 10.8 °C 1005 hPa Calm     65% 0 mm 0.0 W/m2
05:46 17.3 °C 10.2 °C 1005.3 hPa Calm     63% 0 mm 0.0 W/m2
05:51 17.2 °C 10.3 °C 1005 hPa Calm     64% 0 mm 0.0 W/m2
05:57 17.1 °C 10.2 °C 1005 hPa Calm     64% 0 mm 0.0 W/m2
06:03 16.9 °C 10.3 °C 1005 hPa Calm     65% 0 mm 0.0 W/m2
06:10 16.8 °C 10.4 °C 1005 hPa Calm     66% 0 mm 0.0 W/m2
06:19 16.8 °C 10.6 °C 1005 hPa Calm     67% 0 mm 7.0 W/m2
06:30 16.8 °C 10.9 °C 1005 hPa Calm     68% 0 mm 14.0 W/m2
06:42 17.2 °C 11.2 °C 1005 hPa Calm     68% 0 mm 33.0 W/m2
06:51 17.6 °C 11.2 °C 1005 hPa Calm     66% 0 mm 74.0 W/m2
07:03 18.1 °C 11.4 °C 1005.3 hPa Calm     65% 0 mm 74.0 W/m2
07:29 18.3 °C 11.6 °C 1005.3 hPa Calm     65% 0 mm 56.0 W/m2
07:43 18.3 °C 11.6 °C 1005.3 hPa Calm     65% 0 mm 39.0 W/m2
07:52 18.5 °C 11.8 °C 1005.6 hPa Calm     65% 0 mm 287.0 W/m2
07:59 19.1 °C 11.9 °C 1005.6 hPa SW 11.1 km/h 12.9 km/h 63% 0 mm 323.0 W/m2
08:04 19.4 °C 11.9 °C 1005.3 hPa SW 11.1 km/h 11.3 km/h 62% 0 mm 341.0 W/m2
08:09 19.7 °C 12 °C 1005.3 hPa SW 7.9 km/h 11.3 km/h 61% 0 mm 359.0 W/m2
08:14 19.9 °C 11.9 °C 1005.3 hPa SW 9.7 km/h 9.7 km/h 60% 0 mm 376.0 W/m2
08:20 20.1 °C 11.6 °C 1005.3 hPa SW 6.4 km/h 9.7 km/h 58% 0 mm 392.0 W/m2
08:25 20.3 °C 11.8 °C 1005.3 hPa SW 6.4 km/h 9.7 km/h 58% 0 mm 413.0 W/m2
08:35 20.7 °C 11.3 °C 1005.3 hPa SW 3.2 km/h 9.7 km/h 55% 0 mm 443.0 W/m2
08:41 21 °C 11.3 °C 1005.3 hPa Calm     54% 0 mm 462.0 W/m2
08:48 21.3 °C 11.3 °C 1005.3 hPa SW 4.7 km/h 8 km/h 53% 0 mm 483.0 W/m2
08:57 21.8 °C 10.6 °C 1005.3 hPa SW 7.9 km/h 9.7 km/h 49% 0 mm 512.0 W/m2
09:06 22.4 °C 10.2 °C 1005 hPa SW 6.4 km/h 11.3 km/h 46% 0 mm 548.0 W/m2
09:11 22.9 °C 9.3 °C 1005 hPa SW 9.7 km/h 11.3 km/h 42% 0 mm 561.0 W/m2
09:18 23.4 °C 6.6 °C 1005 hPa SW 7.9 km/h 14.5 km/h 34% 0 mm 582.0 W/m2
09:46 24.8 °C 3.4 °C 1005.3 hPa Calm     25% 0 mm 663.0 W/m2
10:01 25.8 °C 4.3 °C 1005.3 hPa Calm     25% 0 mm 705.0 W/m2
10:12 26.2 °C 4 °C 1005 hPa Calm     24% 0 mm 735.0 W/m2
10:27 27.3 °C 3.7 °C 1005 hPa Calm     22% 0 mm 777.0 W/m2
10:42 27.8 °C 2.8 °C 1005 hPa Calm     20% 0 mm 812.0 W/m2
10:57 28.9 °C 3 °C 1005 hPa Calm   8 km/h 19% 0 mm 849.0 W/m2
11:13 29.8 °C 3.7 °C 1004.6 hPa Calm     19% 0 mm 877.0 W/m2
11:23 30.7 °C 2.9 °C 1004.6 hPa Calm     17% 0 mm 898.0 W/m2
11:37 31.7 °C -1.2 °C 1004.6 hPa Calm   8 km/h 12% 0 mm 921.0 W/m2
12:03 32.9 °C -2.7 °C 1004.3 hPa West 6.4 km/h 17.7 km/h 10% 0 mm 954.0 W/m2
12:15 33.4 °C -3.8 °C 1003.9 hPa West 7.9 km/h 12.9 km/h 9% 0 mm 963.0 W/m2
12:28 34.1 °C -1.8 °C 1003.9 hPa WNW 6.4 km/h 20.9 km/h 10% 0 mm 976.0 W/m2
12:40 34.4 °C -0.3 °C 1003.9 hPa WNW 9.7 km/h 12.9 km/h 11% 0 mm 977.0 W/m2
12:54 34.6 °C -0.2 °C 1003.6 hPa Calm   3.2 km/h 11% 0 mm 986.0 W/m2
13:04 35.1 °C 0.2 °C 1003.6 hPa WNW 3.2 km/h 16.1 km/h 11% 0 mm 986.0 W/m2
13:18 35.6 °C -0.7 °C 1003.3 hPa NW 7.9 km/h 12.9 km/h 10% 0 mm 990.0 W/m2
13:25 35.7 °C -0.6 °C 1003.3 hPa Calm   9.7 km/h 10% 0 mm 977.0 W/m2
13:34 35.8 °C -0.6 °C 1002.9 hPa Calm   1.6 km/h 10% 0 mm 979.0 W/m2
13:45 35.7 °C -0.6 °C 1002.9 hPa Calm   4.8 km/h 10% 0 mm 969.0 W/m2
13:57 36.2 °C -1.7 °C 1002.9 hPa WNW 17.7 km/h 29 km/h 9% 0 mm 962.0 W/m2
14:03 36.2 °C -1.7 °C 1002.9 hPa WNW 7.9 km/h 19.3 km/h 9% 0 mm 953.0 W/m2
14:14 36.3 °C -1.6 °C 1002.9 hPa Calm   1.6 km/h 9% 0 mm 939.0 W/m2
14:22 36.8 °C -2.8 °C 1002.6 hPa West 4.7 km/h 12.9 km/h 8% 0 mm 928.0 W/m2
14:33 37.1 °C -4.4 °C 1002.3 hPa West 16.3 km/h 16.3 km/h 7% 0 mm 916.0 W/m2
14:44 37.4 °C -4.2 °C 1002.3 hPa WNW 11.1 km/h 19.3 km/h 7% 0 mm 898.0 W/m2
14:55 37.1 °C -4.4 °C 1002.3 hPa Calm   9.7 km/h 7% 0 mm 881.0 W/m2
15:05 37.2 °C -4.3 °C 1001.9 hPa WNW 1.4 km/h 3.2 km/h 7% 0 mm 860.0 W/m2
15:31 38 °C -5.8 °C 1001.6 hPa NW 4.7 km/h 16.1 km/h 6% 0 mm 805.0 W/m2
15:44 38 °C -5.8 °C 1001.6 hPa WNW 3.2 km/h 11.3 km/h 6% 0 mm 770.0 W/m2
15:56 38.1 °C -5.7 °C 1001.2 hPa WNW 7.9 km/h 11.3 km/h 6% 0 mm 740.0 W/m2
16:06 37.8 °C -5.9 °C 1000.9 hPa Calm   8 km/h 6% 0 mm 714.0 W/m2
16:14 37.9 °C -5.9 °C 1000.6 hPa WNW 11.1 km/h 19.3 km/h 6% 0 mm 694.0 W/m2
16:24 38.1 °C -5.7 °C 1000.2 hPa SSW 16.3 km/h 16.3 km/h 6% 0 mm 652.0 W/m2
16:36 38.4 °C -1.7 °C 1000.6 hPa WSW 27.4 km/h 35.4 km/h 8% 0 mm 617.0 W/m2
16:47 37.8 °C -0.5 °C 1000.6 hPa SSW 25.9 km/h 29 km/h 9% 0 mm 589.0 W/m2
17:01 37.3 °C 0.6 °C 1000.2 hPa SSW 27.4 km/h 38.6 km/h 10% 0 mm 534.0 W/m2
17:12 36.9 °C 1.6 °C 1000.6 hPa SW 19.5 km/h 33.8 km/h 11% 0 mm 501.0 W/m2
17:40 36.4 °C 3.6 °C 1000.6 hPa SSW 25.9 km/h 37 km/h 13% 0 mm 404.0 W/m2
17:49 36 °C 3.3 °C 1000.6 hPa SW 24.1 km/h 32.2 km/h 13% 0 mm 316.0 W/m2
17:55 35.9 °C 3.2 °C 1000.6 hPa SSW 30.6 km/h 32.2 km/h 13% 0 mm 388.0 W/m2
18:06 35.6 °C 5 °C 1000.6 hPa SSW 25.9 km/h 33.8 km/h 15% 0 mm 345.0 W/m2
18:16 35.3 °C 5.7 °C 1000.9 hPa SSW 24.1 km/h 32.2 km/h 16% 0 mm 301.0 W/m2
18:27 35 °C 6.3 °C 1000.9 hPa South 27.4 km/h 33.8 km/h 17% 0 mm 239.0 W/m2
18:57 33.6 °C 8.3 °C 1001.2 hPa South 25.9 km/h 30.6 km/h 21% 0 mm 114.0 W/m2
19:12 32.7 °C 8.9 °C 1001.6 hPa SSW 20.9 km/h 32.2 km/h 23% 0 mm 62.0 W/m2
20:05 30 °C 9.5 °C 1002.3 hPa SSW 24.1 km/h 29 km/h 28% 0 mm 0.0 W/m2
20:24 29.3 °C 9.9 °C 1002.6 hPa SSW 20.9 km/h 27.4 km/h 30% 0 mm 0.0 W/m2
20:37 28.9 °C 10.1 °C 1002.6 hPa SSW 19.5 km/h 27.4 km/h 31% 0 mm 0.0 W/m2
20:52 28.6 °C 10.3 °C 1002.9 hPa SSW 16.3 km/h 24.1 km/h 32% 0 mm 0.0 W/m2
21:02 28.3 °C 10.5 °C 1002.9 hPa SSW 20.9 km/h 24.1 km/h 33% 0 mm 0.0 W/m2
21:10 28.1 °C 10.3 °C 1002.9 hPa SSW 17.7 km/h 24.1 km/h 33% 0 mm 0.0 W/m2
21:20 27.9 °C 10.6 °C 1002.9 hPa SSW 16.3 km/h 22.5 km/h 34% 0 mm 0.0 W/m2
21:36 27.6 °C 10.8 °C 1003.3 hPa SSW 13 km/h 20.9 km/h 35% 0 mm 0.0 W/m2
21:45 27.3 °C 10.9 °C 1003.3 hPa SSW 11.1 km/h 24.1 km/h 36% 0 mm 0.0 W/m2
21:54 27 °C 11.1 °C 1003.6 hPa SSW 14.3 km/h 20.9 km/h 37% 0 mm 0.0 W/m2
22:03 26.7 °C 11.2 °C 1003.6 hPa South 14.3 km/h 16.1 km/h 38% 0 mm 0.0 W/m2
22:13 26.5 °C 11 °C 1003.9 hPa South 14.3 km/h 17.7 km/h 38% 0 mm 0.0 W/m2
22:18 26.3 °C 11.2 °C 1003.9 hPa South 16.3 km/h 17.7 km/h 39% 0 mm 0.0 W/m2
22:24 26.2 °C 11.2 °C 1003.9 hPa SSW 14.3 km/h 22.5 km/h 39% 0 mm 0.0 W/m2
22:33 25.9 °C 11.3 °C 1003.9 hPa SSW 17.7 km/h 17.7 km/h 40% 0 mm 0.0 W/m2
22:43 25.7 °C 11.5 °C 1003.9 hPa SSW 19.5 km/h 19.5 km/h 41% 0 mm 0.0 W/m2
22:53 25.5 °C 11.6 °C 1003.9 hPa SSW 19.5 km/h 22.5 km/h 42% 0 mm 0.0 W/m2
23:04 25.3 °C 11.8 °C 1003.9 hPa SSW 13 km/h 20.9 km/h 43% 0 mm 0.0 W/m2
23:13 25 °C 11.6 °C 1003.9 hPa SSW 13 km/h 19.3 km/h 43% 0 mm 0.0 W/m2
23:18 24.8 °C 11.7 °C 1003.9 hPa SSW 13 km/h 16.1 km/h 44% 0 mm 0.0 W/m2
23:23 24.6 °C 11.9 °C 1003.9 hPa SSW 16.3 km/h 17.7 km/h 45% 0 mm 0.0 W/m2
23:28 24.5 °C 11.8 °C 1003.9 hPa SSW 14.3 km/h 22.5 km/h 45% 0 mm 0.0 W/m2
23:33 24.3 °C 11.6 °C 1003.9 hPa SW 13 km/h 20.9 km/h 45% 0 mm 0.0 W/m2
23:43 24.1 °C 11.8 °C 1003.9 hPa SSW 16.3 km/h 19.3 km/h 46% 0 mm 0.0 W/m2
23:53 23.9 °C 11.6 °C 1004.3 hPa SW 13 km/h 19.3 km/h 46% 0 mm 0.0 W/m2
23:59 23.9 °C 11.6 °C 1003.9 hPa SSW 19.5 km/h 19.5 km/h 46% 0 mm 0.0 W/m2
Canyon Roadhouse, Fishriver Canyon, Namibia
Compliments of Weather Underground - 2.5 mb